sensor_id;sensor_type;location;lat;lon;timestamp;temperature;humidity
68439;SHT31;55421;51.600;5.718;2022-09-16T00:00:44;14.45;74.54
68439;SHT31;55421;51.600;5.718;2022-09-16T00:03:31;14.46;74.64
68439;SHT31;55421;51.600;5.718;2022-09-16T00:05:59;14.48;74.70
68439;SHT31;55421;51.600;5.718;2022-09-16T00:08:26;14.49;74.71
68439;SHT31;55421;51.600;5.718;2022-09-16T00:10:57;14.50;74.70
68439;SHT31;55421;51.600;5.718;2022-09-16T00:13:26;14.49;74.76
68439;SHT31;55421;51.600;5.718;2022-09-16T00:15:53;14.49;74.80
68439;SHT31;55421;51.600;5.718;2022-09-16T00:18:19;14.49;74.80
68439;SHT31;55421;51.600;5.718;2022-09-16T00:20:47;14.48;74.75
68439;SHT31;55421;51.600;5.718;2022-09-16T00:23:17;14.50;74.80
68439;SHT31;55421;51.600;5.718;2022-09-16T00:25:51;14.53;74.75
68439;SHT31;55421;51.600;5.718;2022-09-16T00:28:20;14.56;74.70
68439;SHT31;55421;51.600;5.718;2022-09-16T00:30:48;14.56;74.70
68439;SHT31;55421;51.600;5.718;2022-09-16T00:33:15;14.56;74.77
68439;SHT31;55421;51.600;5.718;2022-09-16T00:35:43;14.56;74.80
68439;SHT31;55421;51.600;5.718;2022-09-16T00:38:10;14.57;74.76
68439;SHT31;55421;51.600;5.718;2022-09-16T00:40:44;14.55;74.70
68439;SHT31;55421;51.600;5.718;2022-09-16T00:43:16;14.54;74.75
68439;SHT31;55421;51.600;5.718;2022-09-16T00:45:45;14.56;74.80
68439;SHT31;55421;51.600;5.718;2022-09-16T00:48:18;14.58;74.84
68439;SHT31;55421;51.600;5.718;2022-09-16T00:50:50;14.58;74.87
68439;SHT31;55421;51.600;5.718;2022-09-16T00:53:22;14.56;74.90
68439;SHT31;55421;51.600;5.718;2022-09-16T00:55:54;14.54;74.97
68439;SHT31;55421;51.600;5.718;2022-09-16T00:58:31;14.53;75.06
68439;SHT31;55421;51.600;5.718;2022-09-16T01:01:06;14.54;75.14
68439;SHT31;55421;51.600;5.718;2022-09-16T01:03:34;14.55;75.20
68439;SHT31;55421;51.600;5.718;2022-09-16T01:06:19;14.57;75.26
68439;SHT31;55421;51.600;5.718;2022-09-16T01:08:48;14.59;75.25
68439;SHT31;55421;51.600;5.718;2022-09-16T01:11:16;14.58;75.30
68439;SHT31;55421;51.600;5.718;2022-09-16T01:13:44;14.57;75.30
68439;SHT31;55421;51.600;5.718;2022-09-16T01:16:18;14.55;75.26
68439;SHT31;55421;51.600;5.718;2022-09-16T01:22:24;14.52;75.23
68439;SHT31;55421;51.600;5.718;2022-09-16T01:42:29;14.54;75.29
68439;SHT31;55421;51.600;5.718;2022-09-16T01:45:19;14.56;75.20
68439;SHT31;55421;51.600;5.718;2022-09-16T01:48:04;14.55;75.18
68439;SHT31;55421;51.600;5.718;2022-09-16T01:51:13;14.50;75.12
68439;SHT31;55421;51.600;5.718;2022-09-16T01:56:36;14.42;75.20
68439;SHT31;55421;51.600;5.718;2022-09-16T01:59:17;14.42;75.20
68439;SHT31;55421;51.600;5.718;2022-09-16T02:02:01;14.42;75.20
68439;SHT31;55421;51.600;5.718;2022-09-16T02:04:37;14.43;75.14
68439;SHT31;55421;51.600;5.718;2022-09-16T02:07:12;14.42;75.16
68439;SHT31;55421;51.600;5.718;2022-09-16T02:09:44;14.40;75.13
68439;SHT31;55421;51.600;5.718;2022-09-16T02:12:19;14.35;75.19
68439;SHT31;55421;51.600;5.718;2022-09-16T02:14:55;14.32;75.35
68439;SHT31;55421;51.600;5.718;2022-09-16T02:17:30;14.36;75.39
68439;SHT31;55421;51.600;5.718;2022-09-16T02:20:04;14.40;75.32
68439;SHT31;55421;51.600;5.718;2022-09-16T02:22:38;14.43;75.25
68439;SHT31;55421;51.600;5.718;2022-09-16T02:25:09;14.42;75.23
68439;SHT31;55421;51.600;5.718;2022-09-16T02:27:39;14.42;75.24
68439;SHT31;55421;51.600;5.718;2022-09-16T02:30:11;14.40;75.20
68439;SHT31;55421;51.600;5.718;2022-09-16T02:32:45;14.36;75.24
68439;SHT31;55421;51.600;5.718;2022-09-16T02:35:16;14.34;75.26
68439;SHT31;55421;51.600;5.718;2022-09-16T02:37:49;14.34;75.38
68439;SHT31;55421;51.600;5.718;2022-09-16T02:40:29;14.35;75.30
68439;SHT31;55421;51.600;5.718;2022-09-16T02:43:00;14.34;75.30
68439;SHT31;55421;51.600;5.718;2022-09-16T02:48:39;14.27;75.29
68439;SHT31;55421;51.600;5.718;2022-09-16T02:54:24;14.11;75.36
68439;SHT31;55421;51.600;5.718;2022-09-16T02:56:54;14.06;75.35
68439;SHT31;55421;51.600;5.718;2022-09-16T02:59:22;14.02;75.42
68439;SHT31;55421;51.600;5.718;2022-09-16T03:01:50;14.00;75.36
68439;SHT31;55421;51.600;5.718;2022-09-16T03:04:17;13.94;75.41
68439;SHT31;55421;51.600;5.718;2022-09-16T03:06:45;13.88;75.46
68439;SHT31;55421;51.600;5.718;2022-09-16T03:09:14;13.81;75.36
68439;SHT31;55421;51.600;5.718;2022-09-16T03:17:42;13.69;75.45
68439;SHT31;55421;51.600;5.718;2022-09-16T03:26:15;13.62;75.46
68439;SHT31;55421;51.600;5.718;2022-09-16T03:29:20;13.58;75.48
68439;SHT31;55421;51.600;5.718;2022-09-16T03:32:02;13.57;75.62
68439;SHT31;55421;51.600;5.718;2022-09-16T03:35:03;13.59;75.68
68439;SHT31;55421;51.600;5.718;2022-09-16T03:37:38;13.58;75.72
68439;SHT31;55421;51.600;5.718;2022-09-16T03:40:10;13.59;75.73
68439;SHT31;55421;51.600;5.718;2022-09-16T03:42:41;13.58;75.71
68439;SHT31;55421;51.600;5.718;2022-09-16T03:45:19;13.56;75.78
68439;SHT31;55421;51.600;5.718;2022-09-16T03:47:47;13.54;75.81
68439;SHT31;55421;51.600;5.718;2022-09-16T03:50:17;13.55;75.89
68439;SHT31;55421;51.600;5.718;2022-09-16T03:52:45;13.59;75.98
68439;SHT31;55421;51.600;5.718;2022-09-16T03:55:12;13.63;76.02
68439;SHT31;55421;51.600;5.718;2022-09-16T03:57:38;13.67;76.00
68439;SHT31;55421;51.600;5.718;2022-09-16T04:00:05;13.67;76.02
68439;SHT31;55421;51.600;5.718;2022-09-16T04:02:33;13.68;76.16
68439;SHT31;55421;51.600;5.718;2022-09-16T04:05:00;13.69;76.20
68439;SHT31;55421;51.600;5.718;2022-09-16T04:07:27;13.70;76.20
68439;SHT31;55421;51.600;5.718;2022-09-16T04:09:53;13.73;76.23
68439;SHT31;55421;51.600;5.718;2022-09-16T04:12:20;13.78;76.23
68439;SHT31;55421;51.600;5.718;2022-09-16T04:14:46;13.79;76.25
68439;SHT31;55421;51.600;5.718;2022-09-16T04:17:12;13.80;76.30
68439;SHT31;55421;51.600;5.718;2022-09-16T04:19:39;13.81;76.31
68439;SHT31;55421;51.600;5.718;2022-09-16T04:22:05;13.79;76.35
68439;SHT31;55421;51.600;5.718;2022-09-16T04:24:32;13.80;76.40
68439;SHT31;55421;51.600;5.718;2022-09-16T04:26:58;13.81;76.44
68439;SHT31;55421;51.600;5.718;2022-09-16T04:29:25;13.82;76.49
68439;SHT31;55421;51.600;5.718;2022-09-16T04:31:52;13.81;76.48
68439;SHT31;55421;51.600;5.718;2022-09-16T04:34:20;13.78;76.48
68439;SHT31;55421;51.600;5.718;2022-09-16T04:36:48;13.76;76.51
68439;SHT31;55421;51.600;5.718;2022-09-16T04:39:14;13.71;76.55
68439;SHT31;55421;51.600;5.718;2022-09-16T04:41:41;13.70;76.60
68439;SHT31;55421;51.600;5.718;2022-09-16T04:44:08;13.69;76.60
68439;SHT31;55421;51.600;5.718;2022-09-16T04:46:35;13.70;76.53
68439;SHT31;55421;51.600;5.718;2022-09-16T04:49:02;13.69;76.50
68439;SHT31;55421;51.600;5.718;2022-09-16T04:51:28;13.66;76.58
68439;SHT31;55421;51.600;5.718;2022-09-16T04:53:57;13.63;76.62
68439;SHT31;55421;51.600;5.718;2022-09-16T04:56:26;13.60;76.73
68439;SHT31;55421;51.600;5.718;2022-09-16T04:59:00;13.57;76.82
68439;SHT31;55421;51.600;5.718;2022-09-16T05:01:30;13.58;76.92
68439;SHT31;55421;51.600;5.718;2022-09-16T05:04:01;13.61;77.00
68439;SHT31;55421;51.600;5.718;2022-09-16T05:06:32;13.64;77.02
68439;SHT31;55421;51.600;5.718;2022-09-16T05:09:02;13.63;77.14
68439;SHT31;55421;51.600;5.718;2022-09-16T05:11:31;13.64;77.13
68439;SHT31;55421;51.600;5.718;2022-09-16T05:14:04;13.64;77.18
68439;SHT31;55421;51.600;5.718;2022-09-16T05:16:35;13.64;77.20
68439;SHT31;55421;51.600;5.718;2022-09-16T05:19:01;13.68;77.30
68439;SHT31;55421;51.600;5.718;2022-09-16T05:21:30;13.70;77.30
68439;SHT31;55421;51.600;5.718;2022-09-16T05:24:00;13.71;77.30
68439;SHT31;55421;51.600;5.718;2022-09-16T05:26:30;13.69;77.31
68439;SHT31;55421;51.600;5.718;2022-09-16T05:29:01;13.67;77.40
68439;SHT31;55421;51.600;5.718;2022-09-16T05:31:33;13.65;77.31
68439;SHT31;55421;51.600;5.718;2022-09-16T05:34:03;13.63;77.30
68439;SHT31;55421;51.600;5.718;2022-09-16T05:36:40;13.63;77.29
68439;SHT31;55421;51.600;5.718;2022-09-16T05:39:09;13.61;77.40
68439;SHT31;55421;51.600;5.718;2022-09-16T05:41:37;13.62;77.40
68439;SHT31;55421;51.600;5.718;2022-09-16T05:44:03;13.62;77.40
68439;SHT31;55421;51.600;5.718;2022-09-16T05:46:33;13.62;77.41
68439;SHT31;55421;51.600;5.718;2022-09-16T05:49:00;13.60;77.40
68439;SHT31;55421;51.600;5.718;2022-09-16T05:51:27;13.59;77.39
68439;SHT31;55421;51.600;5.718;2022-09-16T05:53:54;13.60;77.50
68439;SHT31;55421;51.600;5.718;2022-09-16T05:56:21;13.63;77.51
68439;SHT31;55421;51.600;5.718;2022-09-16T05:58:54;13.66;77.52
68439;SHT31;55421;51.600;5.718;2022-09-16T06:01:24;13.68;77.50
68439;SHT31;55421;51.600;5.718;2022-09-16T06:03:59;13.68;77.46
68439;SHT31;55421;51.600;5.718;2022-09-16T06:09:04;13.63;77.50
68439;SHT31;55421;51.600;5.718;2022-09-16T06:11:54;13.63;77.41
68439;SHT31;55421;51.600;5.718;2022-09-16T06:14:21;13.64;77.40
68439;SHT31;55421;51.600;5.718;2022-09-16T06:16:48;13.67;77.40
68439;SHT31;55421;51.600;5.718;2022-09-16T06:19:15;13.67;77.22
68439;SHT31;55421;51.600;5.718;2022-09-16T06:21:43;13.66;77.17
68439;SHT31;55421;51.600;5.718;2022-09-16T06:24:11;13.68;77.06
68439;SHT31;55421;51.600;5.718;2022-09-16T06:26:40;13.71;76.96
68439;SHT31;55421;51.600;5.718;2022-09-16T06:29:09;13.74;76.89
68439;SHT31;55421;51.600;5.718;2022-09-16T06:31:37;13.80;76.85
68439;SHT31;55421;51.600;5.718;2022-09-16T06:34:04;13.86;76.68
68439;SHT31;55421;51.600;5.718;2022-09-16T06:36:34;13.91;76.54
68439;SHT31;55421;51.600;5.718;2022-09-16T06:39:03;13.94;76.30
68439;SHT31;55421;51.600;5.718;2022-09-16T06:41:31;13.95;76.28
68439;SHT31;55421;51.600;5.718;2022-09-16T06:43:59;13.97;76.30
68439;SHT31;55421;51.600;5.718;2022-09-16T06:46:26;13.98;76.33
68439;SHT31;55421;51.600;5.718;2022-09-16T06:48:54;14.00;76.40
68439;SHT31;55421;51.600;5.718;2022-09-16T06:51:24;14.01;76.51
68439;SHT31;55421;51.600;5.718;2022-09-16T06:53:59;14.03;76.58
68439;SHT31;55421;51.600;5.718;2022-09-16T06:56:29;14.03;76.70
68439;SHT31;55421;51.600;5.718;2022-09-16T06:58:56;14.05;76.85
68439;SHT31;55421;51.600;5.718;2022-09-16T07:01:26;14.05;76.90
68439;SHT31;55421;51.600;5.718;2022-09-16T07:03:56;14.06;76.95
68439;SHT31;55421;51.600;5.718;2022-09-16T07:06:26;14.08;77.00
68439;SHT31;55421;51.600;5.718;2022-09-16T07:08:55;14.09;77.04
68439;SHT31;55421;51.600;5.718;2022-09-16T07:11:22;14.18;77.16
68439;SHT31;55421;51.600;5.718;2022-09-16T07:13:50;14.27;77.19
68439;SHT31;55421;51.600;5.718;2022-09-16T07:16:18;14.36;77.18
68439;SHT31;55421;51.600;5.718;2022-09-16T07:18:55;14.44;77.11
68439;SHT31;55421;51.600;5.718;2022-09-16T07:21:24;14.52;77.02
68439;SHT31;55421;51.600;5.718;2022-09-16T07:23:56;14.60;76.80
68439;SHT31;55421;51.600;5.718;2022-09-16T07:26:30;14.70;76.62
68439;SHT31;55421;51.600;5.718;2022-09-16T07:29:01;14.79;76.60
68439;SHT31;55421;51.600;5.718;2022-09-16T07:31:32;14.89;76.57
68439;SHT31;55421;51.600;5.718;2022-09-16T07:34:02;14.96;76.30
68439;SHT31;55421;51.600;5.718;2022-09-16T07:36:33;15.03;76.05
68439;SHT31;55421;51.600;5.718;2022-09-16T07:39:08;15.08;75.82
68439;SHT31;55421;51.600;5.718;2022-09-16T07:41:38;15.13;75.35
68439;SHT31;55421;51.600;5.718;2022-09-16T07:44:10;15.21;75.13
68439;SHT31;55421;51.600;5.718;2022-09-16T07:46:39;15.30;74.86
68439;SHT31;55421;51.600;5.718;2022-09-16T07:49:07;15.37;74.82
68439;SHT31;55421;51.600;5.718;2022-09-16T07:51:36;15.47;74.65
68439;SHT31;55421;51.600;5.718;2022-09-16T07:54:05;15.57;74.25
68439;SHT31;55421;51.600;5.718;2022-09-16T07:56:34;15.66;73.86
68439;SHT31;55421;51.600;5.718;2022-09-16T07:59:04;15.74;73.53
68439;SHT31;55421;51.600;5.718;2022-09-16T08:01:33;15.79;73.36
68439;SHT31;55421;51.600;5.718;2022-09-16T08:04:00;15.78;73.20
68439;SHT31;55421;51.600;5.718;2022-09-16T08:06:28;15.71;73.14
68439;SHT31;55421;51.600;5.718;2022-09-16T08:08:58;15.72;72.98
68439;SHT31;55421;51.600;5.718;2022-09-16T08:11:30;15.77;72.69
68439;SHT31;55421;51.600;5.718;2022-09-16T08:13:57;15.84;72.48
68439;SHT31;55421;51.600;5.718;2022-09-16T08:16:25;15.90;72.40
68439;SHT31;55421;51.600;5.718;2022-09-16T08:18:53;15.96;72.31
68439;SHT31;55421;51.600;5.718;2022-09-16T08:21:23;16.03;72.09
68439;SHT31;55421;51.600;5.718;2022-09-16T08:23:53;16.09;71.81
68439;SHT31;55421;51.600;5.718;2022-09-16T08:26:21;16.11;71.57
68439;SHT31;55421;51.600;5.718;2022-09-16T08:28:49;16.14;71.67
68439;SHT31;55421;51.600;5.718;2022-09-16T08:31:17;16.26;71.94
68439;SHT31;55421;51.600;5.718;2022-09-16T08:33:45;16.39;71.63
68439;SHT31;55421;51.600;5.718;2022-09-16T08:36:14;16.47;71.11
68439;SHT31;55421;51.600;5.718;2022-09-16T08:38:47;16.46;71.07
68439;SHT31;55421;51.600;5.718;2022-09-16T08:50:20;16.63;69.92
68439;SHT31;55421;51.600;5.718;2022-09-16T08:52:55;16.69;69.75
68439;SHT31;55421;51.600;5.718;2022-09-16T08:55:31;16.84;69.80
68439;SHT31;55421;51.600;5.718;2022-09-16T08:58:16;16.93;69.73
68439;SHT31;55421;51.600;5.718;2022-09-16T09:00:50;16.85;69.53
68439;SHT31;55421;51.600;5.718;2022-09-16T09:03:34;16.78;69.41
68439;SHT31;55421;51.600;5.718;2022-09-16T09:06:07;16.83;69.35
68439;SHT31;55421;51.600;5.718;2022-09-16T09:09:01;16.89;69.48
68439;SHT31;55421;51.600;5.718;2022-09-16T09:11:46;16.95;69.41
68439;SHT31;55421;51.600;5.718;2022-09-16T09:15:00;17.03;69.25
68439;SHT31;55421;51.600;5.718;2022-09-16T09:17:40;17.02;68.77
68439;SHT31;55421;51.600;5.718;2022-09-16T09:20:40;17.17;68.78
68439;SHT31;55421;51.600;5.718;2022-09-16T09:26:14;17.19;67.49
68439;SHT31;55421;51.600;5.718;2022-09-16T09:32:10;17.33;67.13
68439;SHT31;55421;51.600;5.718;2022-09-16T09:40:51;17.44;66.59
68439;SHT31;55421;51.600;5.718;2022-09-16T09:43:32;17.46;66.41
68439;SHT31;55421;51.600;5.718;2022-09-16T09:46:15;17.46;66.24
68439;SHT31;55421;51.600;5.718;2022-09-16T09:48:52;17.38;66.40
68439;SHT31;55421;51.600;5.718;2022-09-16T09:51:35;17.18;65.79
68439;SHT31;55421;51.600;5.718;2022-09-16T09:54:30;16.72;66.64
68439;SHT31;55421;51.600;5.718;2022-09-16T09:57:10;16.03;67.85
68439;SHT31;55421;51.600;5.718;2022-09-16T10:00:10;15.35;69.28
68439;SHT31;55421;51.600;5.718;2022-09-16T10:02:46;14.99;70.40
68439;SHT31;55421;51.600;5.718;2022-09-16T10:05:26;14.79;71.25
68439;SHT31;55421;51.600;5.718;2022-09-16T10:07:55;14.64;72.04
68439;SHT31;55421;51.600;5.718;2022-09-16T10:10:28;14.55;72.16
68439;SHT31;55421;51.600;5.718;2022-09-16T10:13:06;14.46;72.49
68439;SHT31;55421;51.600;5.718;2022-09-16T10:15:38;14.38;72.83
68439;SHT31;55421;51.600;5.718;2022-09-16T10:18:10;14.35;73.09
68439;SHT31;55421;51.600;5.718;2022-09-16T10:20:53;14.31;73.23
68439;SHT31;55421;51.600;5.718;2022-09-16T10:23:23;14.24;73.32
68439;SHT31;55421;51.600;5.718;2022-09-16T10:26:02;14.18;73.62
68439;SHT31;55421;51.600;5.718;2022-09-16T10:28:30;14.16;73.94
68439;SHT31;55421;51.600;5.718;2022-09-16T10:30:57;14.19;74.25
68439;SHT31;55421;51.600;5.718;2022-09-16T10:33:35;14.25;74.31
68439;SHT31;55421;51.600;5.718;2022-09-16T10:36:10;14.27;74.51
68439;SHT31;55421;51.600;5.718;2022-09-16T10:38:50;14.25;74.39
68439;SHT31;55421;51.600;5.718;2022-09-16T10:41:23;14.21;74.50
68439;SHT31;55421;51.600;5.718;2022-09-16T10:43:58;14.17;74.74
68439;SHT31;55421;51.600;5.718;2022-09-16T10:46:29;14.17;74.93
68439;SHT31;55421;51.600;5.718;2022-09-16T10:48:58;14.19;74.93
68439;SHT31;55421;51.600;5.718;2022-09-16T10:51:35;14.20;74.95
68439;SHT31;55421;51.600;5.718;2022-09-16T10:54:03;14.29;75.24
68439;SHT31;55421;51.600;5.718;2022-09-16T10:56:44;14.51;75.47
68439;SHT31;55421;51.600;5.718;2022-09-16T10:59:14;14.76;75.51
68439;SHT31;55421;51.600;5.718;2022-09-16T11:04:59;15.21;75.44
68439;SHT31;55421;51.600;5.718;2022-09-16T11:14:01;15.65;74.82
68439;SHT31;55421;51.600;5.718;2022-09-16T11:17:02;15.76;74.43
68439;SHT31;55421;51.600;5.718;2022-09-16T11:57:38;16.33;70.45
68439;SHT31;55421;51.600;5.718;2022-09-16T12:00:12;16.17;70.78
68439;SHT31;55421;51.600;5.718;2022-09-16T12:05:38;15.61;68.96
68439;SHT31;55421;51.600;5.718;2022-09-16T12:11:00;14.94;70.60
68439;SHT31;55421;51.600;5.718;2022-09-16T12:17:24;14.58;72.25
68439;SHT31;55421;51.600;5.718;2022-09-16T12:19:42;14.49;72.75
68439;SHT31;55421;51.600;5.718;2022-09-16T12:22:26;14.50;73.06
68439;SHT31;55421;51.600;5.718;2022-09-16T12:25:02;14.53;73.06
68439;SHT31;55421;51.600;5.718;2022-09-16T12:30:47;14.69;72.93
68439;SHT31;55421;51.600;5.718;2022-09-16T12:33:38;14.82;73.00
68439;SHT31;55421;51.600;5.718;2022-09-16T12:36:12;14.93;72.93
68439;SHT31;55421;51.600;5.718;2022-09-16T12:38:44;14.98;72.73
68439;SHT31;55421;51.600;5.718;2022-09-16T12:46:48;15.30;72.10
68439;SHT31;55421;51.600;5.718;2022-09-16T12:53:06;15.65;71.49
68439;SHT31;55421;51.600;5.718;2022-09-16T13:02:20;15.57;69.70
68439;SHT31;55421;51.600;5.718;2022-09-16T13:04:53;15.52;69.82
68439;SHT31;55421;51.600;5.718;2022-09-16T13:07:31;15.52;70.68
68439;SHT31;55421;51.600;5.718;2022-09-16T13:12:55;15.56;70.45
68439;SHT31;55421;51.600;5.718;2022-09-16T13:15:28;15.53;70.48
68439;SHT31;55421;51.600;5.718;2022-09-16T13:18:08;15.49;70.73
68439;SHT31;55421;51.600;5.718;2022-09-16T13:20:54;15.46;70.67
68439;SHT31;55421;51.600;5.718;2022-09-16T13:23:30;15.40;69.97
68439;SHT31;55421;51.600;5.718;2022-09-16T13:26:03;15.34;70.03
68439;SHT31;55421;51.600;5.718;2022-09-16T13:31:14;15.35;70.30
68439;SHT31;55421;51.600;5.718;2022-09-16T13:33:47;15.31;70.36
68439;SHT31;55421;51.600;5.718;2022-09-16T13:36:39;15.28;70.68
68439;SHT31;55421;51.600;5.718;2022-09-16T13:39:10;15.27;71.18
68439;SHT31;55421;51.600;5.718;2022-09-16T13:49:39;15.17;70.84
68439;SHT31;55421;51.600;5.718;2022-09-16T13:52:28;15.19;71.09
68439;SHT31;55421;51.600;5.718;2022-09-16T13:55:00;15.26;70.97
68439;SHT31;55421;51.600;5.718;2022-09-16T13:58:14;15.30;70.74
68439;SHT31;55421;51.600;5.718;2022-09-16T14:00:35;15.38;70.82
68439;SHT31;55421;51.600;5.718;2022-09-16T14:06:14;15.42;70.34
68439;SHT31;55421;51.600;5.718;2022-09-16T14:14:28;15.57;71.08
68439;SHT31;55421;51.600;5.718;2022-09-16T14:16:59;15.62;71.31
68439;SHT31;55421;51.600;5.718;2022-09-16T14:19:31;15.67;71.23
68439;SHT31;55421;51.600;5.718;2022-09-16T14:22:15;15.77;71.46
68439;SHT31;55421;51.600;5.718;2022-09-16T14:24:47;15.86;71.32
68439;SHT31;55421;51.600;5.718;2022-09-16T14:27:21;15.93;70.92
68439;SHT31;55421;51.600;5.718;2022-09-16T14:29:57;15.98;70.85
68439;SHT31;55421;51.600;5.718;2022-09-16T14:32:28;15.99;70.55
68439;SHT31;55421;51.600;5.718;2022-09-16T14:35:00;15.99;70.23
68439;SHT31;55421;51.600;5.718;2022-09-16T14:37:34;15.97;70.28
68439;SHT31;55421;51.600;5.718;2022-09-16T14:40:14;15.97;70.28
68439;SHT31;55421;51.600;5.718;2022-09-16T14:43:01;15.94;69.69
68439;SHT31;55421;51.600;5.718;2022-09-16T14:45:33;15.87;69.28
68439;SHT31;55421;51.600;5.718;2022-09-16T14:48:04;15.82;69.54
68439;SHT31;55421;51.600;5.718;2022-09-16T14:50:38;15.79;69.70
68439;SHT31;55421;51.600;5.718;2022-09-16T14:56:14;15.78;69.60
68439;SHT31;55421;51.600;5.718;2022-09-16T14:58:44;15.76;69.36
68439;SHT31;55421;51.600;5.718;2022-09-16T15:01:14;15.76;69.24
68439;SHT31;55421;51.600;5.718;2022-09-16T15:03:54;15.75;69.02
68439;SHT31;55421;51.600;5.718;2022-09-16T15:06:30;15.73;68.77
68439;SHT31;55421;51.600;5.718;2022-09-16T15:09:11;15.72;68.78
68439;SHT31;55421;51.600;5.718;2022-09-16T15:11:48;15.72;69.16
68439;SHT31;55421;51.600;5.718;2022-09-16T15:14:20;15.72;69.31
68439;SHT31;55421;51.600;5.718;2022-09-16T15:16:48;15.71;69.10
68439;SHT31;55421;51.600;5.718;2022-09-16T15:19:26;15.73;69.25
68439;SHT31;55421;51.600;5.718;2022-09-16T15:21:59;15.79;68.96
68439;SHT31;55421;51.600;5.718;2022-09-16T15:24:26;15.83;68.89
68439;SHT31;55421;51.600;5.718;2022-09-16T15:26:58;15.86;68.90
68439;SHT31;55421;51.600;5.718;2022-09-16T15:29:28;15.85;68.77
68439;SHT31;55421;51.600;5.718;2022-09-16T15:32:06;15.84;68.82
68439;SHT31;55421;51.600;5.718;2022-09-16T15:34:46;15.86;68.87
68439;SHT31;55421;51.600;5.718;2022-09-16T15:37:31;15.85;68.70
68439;SHT31;55421;51.600;5.718;2022-09-16T15:40:09;15.81;68.94
68439;SHT31;55421;51.600;5.718;2022-09-16T15:42:46;15.80;69.06
68439;SHT31;55421;51.600;5.718;2022-09-16T15:45:25;15.83;69.44
68439;SHT31;55421;51.600;5.718;2022-09-16T15:47:54;15.89;69.23
68439;SHT31;55421;51.600;5.718;2022-09-16T15:50:26;15.92;69.26
68439;SHT31;55421;51.600;5.718;2022-09-16T15:53:04;15.95;69.70
68439;SHT31;55421;51.600;5.718;2022-09-16T15:55:42;15.97;69.51
68439;SHT31;55421;51.600;5.718;2022-09-16T16:01:18;15.88;69.42
68439;SHT31;55421;51.600;5.718;2022-09-16T16:04:06;15.83;69.60
68439;SHT31;55421;51.600;5.718;2022-09-16T16:11:56;15.69;69.55
68439;SHT31;55421;51.600;5.718;2022-09-16T16:14:41;15.63;69.35
68439;SHT31;55421;51.600;5.718;2022-09-16T16:17:10;15.60;69.48
68439;SHT31;55421;51.600;5.718;2022-09-16T16:19:41;15.58;69.65
68439;SHT31;55421;51.600;5.718;2022-09-16T16:22:11;15.55;70.56
68439;SHT31;55421;51.600;5.718;2022-09-16T16:24:38;15.42;70.03
68439;SHT31;55421;51.600;5.718;2022-09-16T16:27:05;15.25;69.93
68439;SHT31;55421;51.600;5.718;2022-09-16T16:29:33;15.09;69.84
68439;SHT31;55421;51.600;5.718;2022-09-16T16:32:01;14.94;69.81
68439;SHT31;55421;51.600;5.718;2022-09-16T16:34:38;14.84;70.52
68439;SHT31;55421;51.600;5.718;2022-09-16T16:37:12;14.78;70.63
68439;SHT31;55421;51.600;5.718;2022-09-16T16:39:42;14.76;70.81
68439;SHT31;55421;51.600;5.718;2022-09-16T16:42:10;14.77;70.81
68439;SHT31;55421;51.600;5.718;2022-09-16T16:44:38;14.94;70.81
68439;SHT31;55421;51.600;5.718;2022-09-16T16:47:05;15.04;70.44
68439;SHT31;55421;51.600;5.718;2022-09-16T16:49:33;14.99;70.43
68439;SHT31;55421;51.600;5.718;2022-09-16T16:52:00;14.97;70.47
68439;SHT31;55421;51.600;5.718;2022-09-16T16:54:27;14.93;70.51
68439;SHT31;55421;51.600;5.718;2022-09-16T16:56:55;14.89;70.62
68439;SHT31;55421;51.600;5.718;2022-09-16T16:59:21;14.85;70.85
68439;SHT31;55421;51.600;5.718;2022-09-16T17:01:53;14.80;71.08
68439;SHT31;55421;51.600;5.718;2022-09-16T17:04:22;14.77;71.32
68439;SHT31;55421;51.600;5.718;2022-09-16T17:06:49;14.75;71.47
68439;SHT31;55421;51.600;5.718;2022-09-16T17:09:16;14.73;71.54
68439;SHT31;55421;51.600;5.718;2022-09-16T17:11:50;14.77;71.62
68439;SHT31;55421;51.600;5.718;2022-09-16T17:14:21;14.79;71.54
68439;SHT31;55421;51.600;5.718;2022-09-16T17:16:50;14.77;71.39
68439;SHT31;55421;51.600;5.718;2022-09-16T17:19:20;14.73;71.47
68439;SHT31;55421;51.600;5.718;2022-09-16T17:21:50;14.68;71.52
68439;SHT31;55421;51.600;5.718;2022-09-16T17:24:21;14.59;71.33
68439;SHT31;55421;51.600;5.718;2022-09-16T17:26:47;14.51;71.30
68439;SHT31;55421;51.600;5.718;2022-09-16T17:29:14;14.44;71.13
68439;SHT31;55421;51.600;5.718;2022-09-16T17:31:41;14.40;71.04
68439;SHT31;55421;51.600;5.718;2022-09-16T17:34:10;14.34;71.06
68439;SHT31;55421;51.600;5.718;2022-09-16T17:36:41;14.28;71.20
68439;SHT31;55421;51.600;5.718;2022-09-16T17:39:18;14.21;71.22
68439;SHT31;55421;51.600;5.718;2022-09-16T17:41:46;14.11;71.20
68439;SHT31;55421;51.600;5.718;2022-09-16T17:44:14;14.02;71.38
68439;SHT31;55421;51.600;5.718;2022-09-16T17:46:43;13.94;71.49
68439;SHT31;55421;51.600;5.718;2022-09-16T17:49:15;13.89;71.50
68439;SHT31;55421;51.600;5.718;2022-09-16T17:51:47;13.87;71.54
68439;SHT31;55421;51.600;5.718;2022-09-16T17:54:15;13.87;71.50
68439;SHT31;55421;51.600;5.718;2022-09-16T17:56:42;13.85;71.57
68439;SHT31;55421;51.600;5.718;2022-09-16T17:59:10;13.84;71.66
68439;SHT31;55421;51.600;5.718;2022-09-16T18:01:38;13.80;71.75
68439;SHT31;55421;51.600;5.718;2022-09-16T18:04:05;13.78;71.88
68439;SHT31;55421;51.600;5.718;2022-09-16T18:06:33;13.75;71.95
68439;SHT31;55421;51.600;5.718;2022-09-16T18:09:06;13.72;72.15
68439;SHT31;55421;51.600;5.718;2022-09-16T18:11:34;13.70;72.21
68439;SHT31;55421;51.600;5.718;2022-09-16T18:14:02;13.72;72.30
68439;SHT31;55421;51.600;5.718;2022-09-16T18:16:32;13.73;72.39
68439;SHT31;55421;51.600;5.718;2022-09-16T18:19:00;13.70;72.40
68439;SHT31;55421;51.600;5.718;2022-09-16T18:21:30;13.65;72.53
68439;SHT31;55421;51.600;5.718;2022-09-16T18:23:58;13.57;72.68
68439;SHT31;55421;51.600;5.718;2022-09-16T18:26:29;13.52;72.88
68439;SHT31;55421;51.600;5.718;2022-09-16T18:28:56;13.46;73.06
68439;SHT31;55421;51.600;5.718;2022-09-16T18:31:28;13.40;73.16
68439;SHT31;55421;51.600;5.718;2022-09-16T18:33:55;13.37;73.33
68439;SHT31;55421;51.600;5.718;2022-09-16T18:36:23;13.36;73.44
68439;SHT31;55421;51.600;5.718;2022-09-16T18:38:52;13.36;73.54
68439;SHT31;55421;51.600;5.718;2022-09-16T18:41:24;13.34;73.60
68439;SHT31;55421;51.600;5.718;2022-09-16T18:43:57;13.31;73.66
68439;SHT31;55421;51.600;5.718;2022-09-16T18:46:28;13.26;73.77
68439;SHT31;55421;51.600;5.718;2022-09-16T18:49:02;13.21;73.83
68439;SHT31;55421;51.600;5.718;2022-09-16T18:51:37;13.18;73.92
68439;SHT31;55421;51.600;5.718;2022-09-16T18:54:09;13.14;74.04
68439;SHT31;55421;51.600;5.718;2022-09-16T18:56:39;13.15;74.14
68439;SHT31;55421;51.600;5.718;2022-09-16T18:59:10;13.15;74.20